createdAt,value
2023-05-11T00:02:02.076Z,4.40
2023-05-11T00:04:29.464Z,4.53
2023-05-11T00:06:56.783Z,4.13
2023-05-11T00:09:25.113Z,4.50
2023-05-11T00:11:53.239Z,4.10
2023-05-11T00:14:20.790Z,4.50
2023-05-11T00:16:48.104Z,4.53
2023-05-11T00:19:15.398Z,4.57
2023-05-11T00:21:42.712Z,4.65
2023-05-11T00:24:10.039Z,4.70
2023-05-11T00:26:37.452Z,4.82
2023-05-11T00:29:06.125Z,4.50
2023-05-11T00:31:33.429Z,4.68
2023-05-11T00:34:00.948Z,4.60
2023-05-11T00:36:28.212Z,4.50
2023-05-11T00:38:55.520Z,5.20
2023-05-11T00:41:22.791Z,4.22
2023-05-11T00:43:50.009Z,4.88
2023-05-11T00:46:17.869Z,4.65
2023-05-11T00:48:45.334Z,5.07
2023-05-11T00:51:13.245Z,4.13
2023-05-11T00:53:40.866Z,4.93
2023-05-11T00:56:08.756Z,4.85
2023-05-11T00:58:37.135Z,5.03
2023-05-11T01:01:04.689Z,4.70
2023-05-11T01:03:33.311Z,5.18
2023-05-11T01:06:27.772Z,4.75
2023-05-11T01:09:04.279Z,4.80
2023-05-11T01:11:41.415Z,4.53
2023-05-11T01:14:28.872Z,4.88
2023-05-11T01:17:08.550Z,4.75
2023-05-11T01:19:50.931Z,4.70
2023-05-11T01:22:33.319Z,4.63
2023-05-11T01:25:17.650Z,4.78
2023-05-11T01:28:22.678Z,4.65
2023-05-11T01:30:51.861Z,5.22
2023-05-11T01:33:26.085Z,5.30
2023-05-11T01:36:01.113Z,5.10
2023-05-11T01:38:33.741Z,4.97
2023-05-11T01:41:06.410Z,5.05
2023-05-11T01:43:37.601Z,5.13
2023-05-11T01:46:06.974Z,5.07
2023-05-11T01:48:38.842Z,5.28
2023-05-11T01:51:07.675Z,5.20
2023-05-11T01:53:37.796Z,5.20
2023-05-11T01:56:06.578Z,5.20
2023-05-11T01:58:36.209Z,5.18
2023-05-11T02:01:04.694Z,4.97
2023-05-11T02:03:35.081Z,5.35
2023-05-11T02:06:06.970Z,5.20
2023-05-11T02:08:34.509Z,5.30
2023-05-11T02:11:03.334Z,5.25
2023-05-11T02:13:33.422Z,5.30
2023-05-11T02:16:02.599Z,5.75
2023-05-11T02:18:31.660Z,5.50
2023-05-11T02:21:00.308Z,5.63
2023-05-11T02:23:31.167Z,5.60
2023-05-11T02:25:59.012Z,5.63
2023-05-11T02:28:26.376Z,5.22
2023-05-11T02:30:56.953Z,5.35
2023-05-11T02:33:33.508Z,5.88
2023-05-11T02:36:02.308Z,5.60
2023-05-11T02:38:36.326Z,5.30
2023-05-11T02:41:07.581Z,6.05
2023-05-11T02:43:37.322Z,5.28
2023-05-11T02:46:11.595Z,5.75
2023-05-11T02:48:47.173Z,5.35
2023-05-11T02:51:17.564Z,5.63
2023-05-11T02:53:46.827Z,5.78
2023-05-11T02:56:14.941Z,5.43
2023-05-11T02:58:43.027Z,5.68
2023-05-11T03:01:12.164Z,5.45
2023-05-11T03:03:39.783Z,5.80
2023-05-11T03:06:07.259Z,5.70
2023-05-11T03:08:35.065Z,5.85
2023-05-11T03:11:04.225Z,5.25
2023-05-11T03:13:32.210Z,5.50
2023-05-11T03:16:00.450Z,5.63
2023-05-11T03:18:29.000Z,5.57
2023-05-11T03:20:58.338Z,5.50
2023-05-11T03:23:26.334Z,5.70
2023-05-11T03:25:54.527Z,5.55
2023-05-11T03:28:22.993Z,5.25
2023-05-11T03:30:51.987Z,5.15
2023-05-11T03:33:21.020Z,5.28
2023-05-11T03:35:50.084Z,5.47
2023-05-11T03:38:19.655Z,5.15
2023-05-11T03:40:47.648Z,5.60
2023-05-11T03:43:19.227Z,5.88
2023-05-11T03:45:48.649Z,5.10
2023-05-11T03:48:17.836Z,5.68
2023-05-11T03:50:46.113Z,5.93
2023-05-11T03:53:14.086Z,5.50
2023-05-11T03:55:41.684Z,5.47
2023-05-11T03:58:10.301Z,5.85
2023-05-11T04:00:41.107Z,4.90
2023-05-11T04:03:09.847Z,5.68
2023-05-11T04:05:37.308Z,5.55
2023-05-11T04:08:05.540Z,5.70
2023-05-11T04:10:33.023Z,5.75
2023-05-11T04:13:00.287Z,5.20
2023-05-11T04:15:27.573Z,5.13
2023-05-11T04:17:54.890Z,5.40
2023-05-11T04:20:22.198Z,5.28
2023-05-11T04:22:49.525Z,5.28
2023-05-11T04:25:16.973Z,4.90
2023-05-11T04:27:44.312Z,5.22
2023-05-11T04:30:11.982Z,5.20
2023-05-11T04:32:39.267Z,5.10
2023-05-11T04:35:06.716Z,4.85
2023-05-11T04:37:34.077Z,4.65
2023-05-11T04:40:01.359Z,4.82
2023-05-11T04:42:30.099Z,5.30
2023-05-11T04:44:57.377Z,5.43
2023-05-11T04:47:24.666Z,5.03
2023-05-11T04:49:52.096Z,4.97
2023-05-11T04:52:19.409Z,4.50
2023-05-11T04:54:46.776Z,4.90
2023-05-11T04:57:14.067Z,4.80
2023-05-11T04:59:41.401Z,5.03
2023-05-11T05:02:08.941Z,5.45
2023-05-11T05:04:36.573Z,4.75
2023-05-11T05:07:04.525Z,4.90
2023-05-11T05:09:31.783Z,4.85
2023-05-11T05:11:59.048Z,4.70
2023-05-11T05:14:26.311Z,5.53
2023-05-11T05:16:54.609Z,5.07
2023-05-11T05:19:21.967Z,5.13
2023-05-11T05:21:49.307Z,5.32
2023-05-11T05:24:16.584Z,5.57
2023-05-11T05:26:44.169Z,4.93
2023-05-11T05:29:11.494Z,5.65
2023-05-11T05:31:38.924Z,4.90
2023-05-11T05:34:06.607Z,5.30
2023-05-11T05:36:33.943Z,5.22
2023-05-11T05:39:01.326Z,5.55
2023-05-11T05:41:28.644Z,5.60
2023-05-11T05:43:55.945Z,5.68
2023-05-11T05:46:23.307Z,5.25
2023-05-11T05:48:50.620Z,5.32
2023-05-11T05:51:17.952Z,5.75
2023-05-11T05:53:45.433Z,5.85
2023-05-11T05:56:12.760Z,5.70
2023-05-11T05:58:39.994Z,5.95
2023-05-11T06:01:07.293Z,5.80
2023-05-11T06:03:34.731Z,5.93
2023-05-11T06:06:05.050Z,6.25
2023-05-11T06:08:32.780Z,5.80
2023-05-11T06:11:00.225Z,5.72
2023-05-11T06:13:27.565Z,6.03
2023-05-11T06:15:54.928Z,6.63
2023-05-11T06:18:22.280Z,6.22
2023-05-11T06:20:49.603Z,6.30
2023-05-11T06:23:16.882Z,5.88
2023-05-11T06:25:44.226Z,6.10
2023-05-11T06:28:11.825Z,6.60
2023-05-11T06:30:39.151Z,7.57
2023-05-11T06:33:06.393Z,7.20
2023-05-11T06:35:33.714Z,6.70
2023-05-11T06:38:01.103Z,7.82
2023-05-11T06:40:28.519Z,7.95
2023-05-11T06:42:55.993Z,7.53
2023-05-11T06:45:23.422Z,7.45
2023-05-11T06:47:51.222Z,7.47
2023-05-11T06:50:20.944Z,8.15
2023-05-11T06:52:48.652Z,8.20
2023-05-11T06:55:15.950Z,8.18
2023-05-11T06:57:43.268Z,7.68
2023-05-11T07:00:11.102Z,7.72
2023-05-11T07:02:38.536Z,8.35
2023-05-11T07:05:06.148Z,8.18
2023-05-11T07:07:33.509Z,8.13
2023-05-11T07:10:01.023Z,8.98
2023-05-11T07:12:28.385Z,8.70
2023-05-11T07:14:55.746Z,8.50
2023-05-11T07:17:23.424Z,8.25
2023-05-11T07:19:52.447Z,8.80
2023-05-11T07:22:19.794Z,9.27
2023-05-11T07:24:47.131Z,8.55
2023-05-11T07:27:14.996Z,9.55
2023-05-11T07:29:42.251Z,9.30
2023-05-11T07:32:09.524Z,9.00
2023-05-11T07:34:36.821Z,8.63
2023-05-11T07:37:04.166Z,8.60
2023-05-11T07:39:31.471Z,8.95
2023-05-11T07:41:58.718Z,8.77
2023-05-11T07:44:26.699Z,8.73
2023-05-11T07:46:54.984Z,8.68
2023-05-11T07:49:28.246Z,8.48
2023-05-11T07:52:07.125Z,9.00
2023-05-11T07:54:34.445Z,9.70
2023-05-11T07:57:04.011Z,8.27
2023-05-11T07:59:31.638Z,8.70
2023-05-11T08:01:59.498Z,9.20
2023-05-11T08:04:27.932Z,8.52
2023-05-11T08:06:55.318Z,8.27
2023-05-11T08:09:22.976Z,8.52
2023-05-11T08:11:50.284Z,8.82
2023-05-11T08:14:17.917Z,8.50
2023-05-11T08:16:45.266Z,9.23
2023-05-11T08:19:13.103Z,8.45
2023-05-11T08:21:40.484Z,8.38
2023-05-11T08:24:08.008Z,9.32
2023-05-11T08:26:35.275Z,9.00
2023-05-11T08:29:04.309Z,9.00
2023-05-11T08:31:31.783Z,9.77
2023-05-11T08:33:59.119Z,9.02
2023-05-11T08:36:26.463Z,8.90
2023-05-11T08:38:57.024Z,8.95
2023-05-11T08:41:26.411Z,8.55
2023-05-11T08:43:55.068Z,8.50
2023-05-11T08:46:24.390Z,8.85
2023-05-11T08:48:51.863Z,8.65
2023-05-11T08:51:19.419Z,8.45
2023-05-11T08:53:46.814Z,8.77
2023-05-11T08:56:15.146Z,8.27
2023-05-11T08:58:43.504Z,8.70
2023-05-11T09:01:12.372Z,7.53
2023-05-11T09:03:41.449Z,7.95
2023-05-11T09:06:11.048Z,7.82
2023-05-11T09:08:39.686Z,7.28
2023-05-11T09:11:07.354Z,7.57
2023-05-11T09:13:35.001Z,7.10
2023-05-11T09:16:02.738Z,7.40
2023-05-11T09:18:30.097Z,6.85
2023-05-11T09:20:57.451Z,7.15
2023-05-11T09:23:28.113Z,6.57
2023-05-11T09:25:55.996Z,6.70
2023-05-11T09:28:27.212Z,6.70
2023-05-11T09:30:54.791Z,6.57
2023-05-11T09:33:26.182Z,6.45
2023-05-11T09:35:54.220Z,6.15
2023-05-11T09:38:24.982Z,6.70
2023-05-11T09:40:56.494Z,6.13
2023-05-11T09:43:29.066Z,6.22
2023-05-11T09:45:58.768Z,6.32
2023-05-11T09:48:27.286Z,5.93
2023-05-11T09:51:06.495Z,6.40
2023-05-11T09:53:43.208Z,6.30
2023-05-11T09:56:11.931Z,6.50
2023-05-11T09:58:52.438Z,6.80
2023-05-11T10:01:30.971Z,6.57
2023-05-11T10:04:13.299Z,6.30
2023-05-11T10:06:49.169Z,6.55
2023-05-11T10:09:19.181Z,6.57
2023-05-11T10:11:47.260Z,6.13
2023-05-11T10:14:16.208Z,6.03
2023-05-11T10:16:46.590Z,6.10
2023-05-11T10:19:14.718Z,6.10
2023-05-11T10:21:42.738Z,6.88
2023-05-11T10:24:11.139Z,6.40
2023-05-11T10:26:39.446Z,6.43
2023-05-11T10:29:07.467Z,6.43
2023-05-11T10:31:37.127Z,6.07
2023-05-11T10:34:05.582Z,5.70
2023-05-11T10:36:33.926Z,5.38
2023-05-11T10:39:01.336Z,5.82
2023-05-11T10:42:06.740Z,5.50
2023-05-11T10:44:48.715Z,5.38
2023-05-11T10:47:46.329Z,5.15
2023-05-11T10:50:22.789Z,5.05
2023-05-11T10:52:52.894Z,4.97
2023-05-11T10:55:51.986Z,4.70
2023-05-11T10:58:43.296Z,5.10
2023-05-11T11:01:39.743Z,4.75
2023-05-11T11:04:12.352Z,4.32
2023-05-11T11:06:43.970Z,4.38
2023-05-11T11:09:16.211Z,4.15
2023-05-11T11:11:46.486Z,4.32
2023-05-11T11:14:15.755Z,3.90
2023-05-11T11:17:15.591Z,3.97
2023-05-11T11:19:43.486Z,4.03
2023-05-11T11:22:39.046Z,4.10
2023-05-11T11:25:07.994Z,3.88
2023-05-11T11:27:41.451Z,3.40
2023-05-11T11:30:21.793Z,3.75
2023-05-11T11:33:10.396Z,3.63
2023-05-11T11:35:43.309Z,3.47
2023-05-11T11:38:20.579Z,3.72
2023-05-11T11:40:52.697Z,3.75
2023-05-11T11:43:22.876Z,3.70
2023-05-11T11:45:57.389Z,4.00
2023-05-11T11:51:05.649Z,3.83
2023-05-11T11:53:42.013Z,3.75
2023-05-11T11:56:29.270Z,4.22
2023-05-11T11:58:58.018Z,4.40
2023-05-11T12:01:27.700Z,4.30
2023-05-11T12:04:20.366Z,3.80
2023-05-11T12:06:58.637Z,3.50
2023-05-11T12:09:27.404Z,3.72
2023-05-11T12:11:56.240Z,3.50
2023-05-11T12:14:23.841Z,3.33
2023-05-11T12:17:01.583Z,3.35
2023-05-11T12:19:28.885Z,3.28
2023-05-11T12:21:56.336Z,3.22
2023-05-11T12:24:23.829Z,3.33
2023-05-11T12:26:54.862Z,3.08
2023-05-11T12:29:22.143Z,2.95
2023-05-11T12:31:49.420Z,2.92
2023-05-11T12:34:18.780Z,3.03
2023-05-11T12:36:47.330Z,2.90
2023-05-11T12:39:19.547Z,2.90
2023-05-11T12:41:49.007Z,3.13
2023-05-11T12:44:17.676Z,3.60
2023-05-11T12:46:47.299Z,3.08
2023-05-11T12:49:26.267Z,3.50
2023-05-11T12:52:02.215Z,3.10
2023-05-11T12:54:35.356Z,3.53
2023-05-11T12:57:03.992Z,3.30
2023-05-11T12:59:40.183Z,2.95
2023-05-11T13:02:12.078Z,3.20
2023-05-11T13:04:41.835Z,2.80
2023-05-11T13:07:09.944Z,3.03
2023-05-11T13:09:37.640Z,3.25
2023-05-11T13:12:18.264Z,3.08
2023-05-11T13:14:51.532Z,3.33
2023-05-11T13:17:37.312Z,2.92
2023-05-11T13:20:24.499Z,2.53
2023-05-11T13:22:52.130Z,2.83
2023-05-11T13:25:21.537Z,3.10
2023-05-11T13:27:49.092Z,3.30
2023-05-11T13:30:16.455Z,3.17
2023-05-11T13:32:43.905Z,2.92
2023-05-11T13:35:11.300Z,2.58
2023-05-11T13:37:38.614Z,2.92
2023-05-11T13:40:10.408Z,2.38
2023-05-11T13:42:38.112Z,2.65
2023-05-11T13:45:05.946Z,2.47
2023-05-11T13:47:34.377Z,2.63
2023-05-11T13:50:01.916Z,2.53
2023-05-11T13:52:29.341Z,2.33
2023-05-11T13:54:56.947Z,2.60
2023-05-11T13:57:24.328Z,2.40
2023-05-11T13:59:51.725Z,2.63
2023-05-11T14:02:19.548Z,2.65
2023-05-11T14:04:46.827Z,2.20
2023-05-11T14:07:15.430Z,2.50
2023-05-11T14:09:47.820Z,2.25
2023-05-11T14:12:15.262Z,2.15
2023-05-11T14:14:42.877Z,2.63
2023-05-11T14:17:13.494Z,2.42
2023-05-11T14:19:40.997Z,2.60
2023-05-11T14:22:08.332Z,2.42
2023-05-11T14:24:35.708Z,2.70
2023-05-11T14:27:03.866Z,2.35
2023-05-11T14:29:31.347Z,2.83
2023-05-11T14:31:58.689Z,2.70
2023-05-11T14:34:26.056Z,2.50
2023-05-11T14:36:53.608Z,2.75
2023-05-11T14:39:20.991Z,2.83
2023-05-11T14:41:48.868Z,3.00
2023-05-11T14:44:16.099Z,2.75
2023-05-11T14:46:43.621Z,2.92
2023-05-11T14:49:10.993Z,2.70
2023-05-11T14:51:39.667Z,2.67
2023-05-11T14:54:07.064Z,2.80
2023-05-11T14:56:35.652Z,3.10
2023-05-11T14:59:03.722Z,3.03
2023-05-11T15:01:31.220Z,3.08
2023-05-11T15:03:58.648Z,2.88
2023-05-11T15:06:26.036Z,2.88
2023-05-11T15:08:53.400Z,3.00
2023-05-11T15:11:21.759Z,3.42
2023-05-11T15:13:49.109Z,3.50
2023-05-11T15:16:16.536Z,3.50
2023-05-11T15:18:43.981Z,3.35
2023-05-11T15:21:11.279Z,3.00
2023-05-11T15:23:38.643Z,3.30
2023-05-11T15:26:05.948Z,3.50
2023-05-11T15:28:33.253Z,3.00
2023-05-11T15:31:00.709Z,3.20
2023-05-11T15:33:28.105Z,2.92
2023-05-11T15:35:55.525Z,2.72
2023-05-11T15:38:22.911Z,2.53
2023-05-11T15:40:50.643Z,2.90
2023-05-11T15:43:18.223Z,2.70
2023-05-11T15:45:45.742Z,2.80
2023-05-11T15:48:14.995Z,2.80
2023-05-11T15:50:42.291Z,2.90
2023-05-11T15:53:09.624Z,3.42
2023-05-11T15:55:37.038Z,3.35
2023-05-11T15:58:08.296Z,2.92
2023-05-11T16:00:35.656Z,3.00
2023-05-11T16:03:03.052Z,2.92
2023-05-11T16:05:30.555Z,2.85
2023-05-11T16:07:57.935Z,3.00
2023-05-11T16:10:25.598Z,2.88
2023-05-11T16:12:53.237Z,2.58
2023-05-11T16:15:20.810Z,2.80
2023-05-11T16:17:48.383Z,2.40
2023-05-11T16:20:15.753Z,2.60
2023-05-11T16:22:43.170Z,2.60
2023-05-11T16:25:10.504Z,2.40
2023-05-11T16:27:37.808Z,2.65
2023-05-11T16:30:11.339Z,2.60
2023-05-11T16:32:45.584Z,2.38
2023-05-11T16:35:13.209Z,2.78
2023-05-11T16:37:40.448Z,2.47
2023-05-11T16:40:08.438Z,2.53
2023-05-11T16:42:35.711Z,2.30
2023-05-11T16:45:03.016Z,2.50
2023-05-11T16:47:31.631Z,2.55
2023-05-11T16:49:59.028Z,2.70
2023-05-11T16:52:26.275Z,2.53
2023-05-11T16:54:53.655Z,2.30
2023-05-11T16:57:21.573Z,2.72
2023-05-11T16:59:48.829Z,2.70
2023-05-11T17:02:16.270Z,2.33
2023-05-11T17:04:43.660Z,2.60
2023-05-11T17:07:11.670Z,2.58
2023-05-11T17:09:38.915Z,2.30
2023-05-11T17:12:09.869Z,2.50
2023-05-11T17:14:37.576Z,2.38
2023-05-11T17:17:06.918Z,2.50
2023-05-11T17:19:34.645Z,2.10
2023-05-11T17:22:02.247Z,2.20
2023-05-11T17:24:29.654Z,2.20
2023-05-11T17:26:57.134Z,2.35
2023-05-11T17:29:24.477Z,2.13
2023-05-11T17:31:52.493Z,2.08
2023-05-11T17:34:22.081Z,2.08
2023-05-11T17:36:51.076Z,2.00
2023-05-11T17:39:19.242Z,1.83
2023-05-11T17:41:47.413Z,2.10
2023-05-11T17:44:14.742Z,2.20
2023-05-11T17:46:42.094Z,2.00
2023-05-11T17:49:09.993Z,1.85
2023-05-11T17:51:37.404Z,1.98
2023-05-11T17:54:04.828Z,2.00
2023-05-11T17:56:32.083Z,1.95
2023-05-11T17:58:59.502Z,1.88
2023-05-11T18:01:28.016Z,1.88
2023-05-11T18:03:57.072Z,1.80
2023-05-11T18:06:24.485Z,2.08
2023-05-11T18:08:52.185Z,2.10
2023-05-11T18:11:19.640Z,2.00
2023-05-11T18:13:47.682Z,1.88
2023-05-11T18:16:14.990Z,1.80
2023-05-11T18:18:42.734Z,2.20
2023-05-11T18:21:13.341Z,1.98
2023-05-11T18:23:40.664Z,1.90
2023-05-11T18:26:08.316Z,1.63
2023-05-11T18:28:35.658Z,1.80
2023-05-11T18:31:03.000Z,2.03
2023-05-11T18:33:30.253Z,2.05
2023-05-11T18:35:57.528Z,2.00
2023-05-11T18:38:24.817Z,1.80
2023-05-11T18:40:53.778Z,1.95
2023-05-11T18:43:21.186Z,1.70
2023-05-11T18:45:50.219Z,1.98
2023-05-11T18:48:17.636Z,1.80
2023-05-11T18:50:44.930Z,2.10
2023-05-11T18:53:12.400Z,2.40
2023-05-11T18:55:51.827Z,2.42
2023-05-11T18:58:21.246Z,2.63
2023-05-11T19:00:49.767Z,2.05
2023-05-11T19:03:19.446Z,2.88
2023-05-11T19:05:47.746Z,2.40
2023-05-11T19:08:15.303Z,2.70
2023-05-11T19:10:45.221Z,2.60
2023-05-11T19:13:13.226Z,2.70
2023-05-11T19:15:40.615Z,3.05
2023-05-11T19:18:08.063Z,3.05
2023-05-11T19:20:35.631Z,2.45
2023-05-11T19:23:04.372Z,2.85
2023-05-11T19:25:31.799Z,2.50
2023-05-11T19:27:59.912Z,2.58
2023-05-11T19:30:27.261Z,2.75
2023-05-11T19:32:54.571Z,2.40
2023-05-11T19:35:21.921Z,2.83
2023-05-11T19:37:50.562Z,2.10
2023-05-11T19:40:44.425Z,2.33
2023-05-11T19:43:07.680Z,3.22
2023-05-11T19:45:35.858Z,2.75
2023-05-11T19:48:03.351Z,2.30
2023-05-11T19:50:30.822Z,2.33
2023-05-11T19:52:58.176Z,2.65
2023-05-11T19:55:25.462Z,2.38
2023-05-11T19:57:52.795Z,2.38
2023-05-11T20:00:24.753Z,2.25
2023-05-11T20:02:53.303Z,2.58
2023-05-11T20:05:20.807Z,2.60
2023-05-11T20:07:48.063Z,2.40
2023-05-11T20:10:15.387Z,2.30
2023-05-11T20:12:42.692Z,2.45
2023-05-11T20:15:10.984Z,2.10
2023-05-11T20:17:39.465Z,2.25
2023-05-11T20:20:08.559Z,2.00
2023-05-11T20:22:36.709Z,2.25
2023-05-11T20:25:16.792Z,2.30
2023-05-11T20:27:45.911Z,2.72
2023-05-11T20:30:13.733Z,2.35
2023-05-11T20:34:06.803Z,2.40
2023-05-11T20:35:28.466Z,2.40
2023-05-11T20:37:56.018Z,2.00
2023-05-11T20:40:23.403Z,2.00
2023-05-11T20:42:50.840Z,2.58
2023-05-11T20:45:18.222Z,2.42
2023-05-11T20:47:45.714Z,2.08
2023-05-11T20:50:15.207Z,2.30
2023-05-11T20:52:42.603Z,2.50
2023-05-11T20:55:10.002Z,2.20
2023-05-11T20:57:37.256Z,2.35
2023-05-11T21:00:07.528Z,2.17
2023-05-11T21:02:35.177Z,2.05
2023-05-11T21:05:02.850Z,2.17
2023-05-11T21:07:30.693Z,2.28
2023-05-11T21:09:58.118Z,2.10
2023-05-11T21:12:25.631Z,2.20
2023-05-11T21:14:53.986Z,2.53
2023-05-11T21:17:22.998Z,2.22
2023-05-11T21:19:50.348Z,2.42
2023-05-11T21:22:17.636Z,2.38
2023-05-11T21:24:44.907Z,2.30
2023-05-11T21:27:12.189Z,2.40
2023-05-11T21:29:39.439Z,2.45
2023-05-11T21:32:07.086Z,2.30
2023-05-11T21:34:34.439Z,2.33
2023-05-11T21:37:03.766Z,2.40
2023-05-11T21:39:31.067Z,2.20
2023-05-11T21:41:58.451Z,2.25
2023-05-11T21:44:25.922Z,2.50
2023-05-11T21:46:53.770Z,2.30
2023-05-11T21:49:21.145Z,2.53
2023-05-11T21:51:49.328Z,2.42
2023-05-11T21:54:16.831Z,2.75
2023-05-11T21:56:44.093Z,2.58
2023-05-11T21:59:11.334Z,2.58
2023-05-11T22:01:38.621Z,2.53
2023-05-11T22:04:06.119Z,2.75
2023-05-11T22:06:33.550Z,2.78
2023-05-11T22:09:00.831Z,2.63
2023-05-11T22:11:28.140Z,3.00
2023-05-11T22:13:55.392Z,2.50
2023-05-11T22:16:22.769Z,2.83
2023-05-11T22:18:50.131Z,2.50
2023-05-11T22:21:17.423Z,3.00
2023-05-11T22:23:44.702Z,2.78
2023-05-11T22:26:12.003Z,2.78
2023-05-11T22:28:39.278Z,3.00
2023-05-11T22:31:07.866Z,2.90
2023-05-11T22:33:35.296Z,3.13
2023-05-11T22:36:02.579Z,3.03
2023-05-11T22:38:30.399Z,2.90
2023-05-11T22:40:57.649Z,2.90
2023-05-11T22:43:25.285Z,2.85
2023-05-11T22:45:52.613Z,2.90
2023-05-11T22:48:19.909Z,2.83
2023-05-11T22:50:47.662Z,2.90
2023-05-11T22:53:15.326Z,3.13
2023-05-11T22:55:42.739Z,3.05
2023-05-11T22:58:10.236Z,3.15
2023-05-11T23:00:37.610Z,3.08
2023-05-11T23:03:05.318Z,3.30
2023-05-11T23:05:32.788Z,2.83
2023-05-11T23:08:00.103Z,2.75
2023-05-11T23:10:28.723Z,2.97
2023-05-11T23:12:56.795Z,2.80
2023-05-11T23:15:24.414Z,2.70
2023-05-11T23:17:51.738Z,2.83
2023-05-11T23:20:19.567Z,3.13
2023-05-11T23:22:47.103Z,2.78
2023-05-11T23:25:14.601Z,3.03
2023-05-11T23:27:41.868Z,3.22
2023-05-11T23:30:09.475Z,2.63
2023-05-11T23:32:36.784Z,3.08
2023-05-11T23:35:04.217Z,2.67
2023-05-11T23:37:31.503Z,2.90
2023-05-11T23:39:58.752Z,2.90
2023-05-11T23:42:26.050Z,2.70
2023-05-11T23:44:53.404Z,3.00
2023-05-11T23:47:20.785Z,3.10
2023-05-11T23:49:48.316Z,2.78
2023-05-11T23:52:15.817Z,2.90
2023-05-11T23:54:43.089Z,2.88
2023-05-11T23:57:10.489Z,2.70
2023-05-11T23:59:37.773Z,2.70
